Time;durP1;ratioP1;P1;durP2;ratioP2;P2;SDS_P1;SDS_P2;PMS_P1;PMS_P2;Temp;Humidity;BMP_temperature;BMP_pressure;BME280_temperature;BME280_humidity;BME280_pressure;Samples;Min_cycle;Max_cycle;Signal;HPM_P1;HPM_P2
2022/05/17 00:00:48;;;;;;;5.05;3.22;;;;;;;15.29;nan;100947.97;5036518;28;20052;-79
2022/05/17 00:03:14;;;;;;;4.25;3.05;;;;;;;15.27;nan;100952.63;5037867;28;20040;-79
2022/05/17 00:05:41;;;;;;;5.00;3.45;;;;;;;15.25;nan;100960.81;5044121;28;20060;-79
2022/05/17 00:08:07;;;;;;;5.15;3.42;;;;;;;15.23;nan;100956.63;5031827;28;20037;-79
2022/05/17 00:10:32;;;;;;;4.57;3.20;;;;;;;15.21;nan;100954.16;5047763;28;20044;-79
2022/05/17 00:12:58;;;;;;;4.00;3.30;;;;;;;15.17;nan;100950.16;5042887;28;20029;-79
2022/05/17 00:15:23;;;;;;;3.70;3.00;;;;;;;15.16;nan;100955.66;5015879;28;20034;-79
2022/05/17 00:17:51;;;;;;;4.20;3.00;;;;;;;15.18;nan;100953.66;5029472;28;20064;-79
2022/05/17 00:20:16;;;;;;;4.78;2.97;;;;;;;15.19;nan;100955.34;5035424;28;20041;-79
2022/05/17 00:22:43;;;;;;;4.47;2.85;;;;;;;15.21;nan;100958.66;5039849;28;20041;-79
2022/05/17 00:25:10;;;;;;;3.47;2.60;;;;;;;15.18;nan;100949.19;5038952;28;20113;-79
2022/05/17 00:27:36;;;;;;;4.95;3.20;;;;;;;15.16;nan;100955.66;5024882;28;20025;-79
2022/05/17 00:30:02;;;;;;;6.22;3.08;;;;;;;15.16;nan;100945.00;5040486;28;20033;-79
2022/05/17 00:32:28;;;;;;;3.20;2.55;;;;;;;15.17;nan;100941.34;5030682;28;20042;-79
2022/05/17 00:34:53;;;;;;;4.05;2.85;;;;;;;15.20;nan;100949.00;5041053;28;20042;-79
2022/05/17 00:37:20;;;;;;;3.30;2.83;;;;;;;15.19;nan;100945.50;5033529;28;20037;-79
2022/05/17 00:39:45;;;;;;;5.32;3.67;;;;;;;15.14;nan;100947.03;5036018;28;20104;-79
2022/05/17 00:42:11;;;;;;;5.18;3.38;;;;;;;15.10;nan;100940.38;5032836;28;20164;-80
2022/05/17 00:44:48;;;;;;;4.03;3.10;;;;;;;15.05;nan;100939.03;5041133;28;20091;-79
2022/05/17 00:47:21;;;;;;;4.43;3.42;;;;;;;15.00;nan;100944.06;5034704;28;20088;-79
2022/05/17 00:50:16;;;;;;;4.00;3.05;;;;;;;14.93;nan;100934.25;5038082;28;20052;-79
2022/05/17 00:52:52;;;;;;;3.83;2.88;;;;;;;14.90;nan;100939.91;5039123;28;20037;-79
2022/05/17 00:55:37;;;;;;;3.88;2.97;;;;;;;14.83;nan;100939.78;5039519;28;20078;-79
2022/05/17 00:58:40;;;;;;;5.05;3.67;;;;;;;14.77;nan;100948.44;5037770;28;20037;-79
2022/05/17 01:01:09;;;;;;;4.85;3.50;;;;;;;14.74;nan;100946.13;5032145;28;20056;-79
2022/05/17 01:03:50;;;;;;;4.50;3.40;;;;;;;14.72;nan;100943.59;5030929;28;20044;-79
2022/05/17 01:06:16;;;;;;;4.78;3.45;;;;;;;14.67;nan;100945.13;5030820;28;20029;-79
2022/05/17 01:08:42;;;;;;;5.82;4.20;;;;;;;14.64;nan;100946.28;5015265;28;20033;-79
2022/05/17 01:11:07;;;;;;;5.47;3.85;;;;;;;14.61;nan;100949.25;5033577;28;20044;-79
2022/05/17 01:16:17;;;;;;;5.05;3.38;;;;;;;14.51;nan;100957.41;5038473;28;20259;-79
2022/05/17 01:18:43;;;;;;;4.53;3.60;;;;;;;14.49;nan;100955.91;5044980;28;20432;-79
2022/05/17 01:21:09;;;;;;;4.45;3.60;;;;;;;14.47;nan;100958.75;5033375;28;20092;-79
2022/05/17 01:23:35;;;;;;;4.65;3.78;;;;;;;14.44;nan;100967.91;5030448;28;20072;-79
2022/05/17 01:26:02;;;;;;;5.35;3.55;;;;;;;14.41;nan;100957.56;5041845;28;20033;-79
2022/05/17 01:28:31;;;;;;;3.83;2.90;;;;;;;14.40;nan;100955.09;5037136;28;20041;-79
2022/05/17 01:31:03;;;;;;;4.03;2.97;;;;;;;14.41;nan;100962.06;5030982;28;20109;-78
2022/05/17 01:33:31;;;;;;;2.88;2.58;;;;;;;14.41;nan;100954.06;5031993;28;20439;-79
2022/05/17 01:35:56;;;;;;;3.25;2.60;;;;;;;14.40;nan;100955.09;5031747;28;20470;-79
2022/05/17 01:38:21;;;;;;;4.18;3.20;;;;;;;14.39;nan;100953.41;5014303;28;20364;-79
2022/05/17 01:40:47;;;;;;;3.83;2.80;;;;;;;14.40;nan;100947.09;5035408;28;20045;-78
2022/05/17 01:43:12;;;;;;;3.70;2.80;;;;;;;14.40;nan;100952.44;5016525;28;20047;-79
2022/05/17 01:45:37;;;;;;;4.78;3.22;;;;;;;14.37;nan;100945.63;5030817;28;20233;-79
2022/05/17 01:48:03;;;;;;;4.55;3.50;;;;;;;14.34;nan;100943.25;5039409;28;20033;-79
2022/05/17 01:50:29;;;;;;;4.80;3.40;;;;;;;14.31;nan;100940.13;5034344;28;20041;-79
2022/05/17 01:52:54;;;;;;;5.57;3.40;;;;;;;14.29;nan;100947.44;5034715;28;20052;-80
2022/05/17 01:55:19;;;;;;;4.45;3.30;;;;;;;14.26;nan;100942.44;5037836;28;20040;-79
2022/05/17 01:57:45;;;;;;;4.25;3.30;;;;;;;14.23;nan;100943.63;5036387;28;20044;-79
2022/05/17 02:00:13;;;;;;;3.92;3.22;;;;;;;14.20;nan;100942.09;5037511;28;20572;-79
2022/05/17 02:02:38;;;;;;;4.95;3.60;;;;;;;14.19;nan;100948.41;5034792;28;20102;-79
2022/05/17 02:05:05;;;;;;;4.68;3.80;;;;;;;14.16;nan;100951.41;5031608;28;20026;-79
2022/05/17 02:07:30;;;;;;;4.55;3.50;;;;;;;14.17;nan;100949.59;5037243;28;20091;-79
2022/05/17 02:09:56;;;;;;;5.30;3.60;;;;;;;14.16;nan;100954.06;5032694;28;20045;-79
2022/05/17 02:12:21;;;;;;;4.63;3.60;;;;;;;14.16;nan;100955.91;5033573;28;20397;-79
2022/05/17 02:14:47;;;;;;;5.25;3.47;;;;;;;14.13;nan;100959.69;5033461;28;20065;-79
2022/05/17 02:17:12;;;;;;;4.90;3.80;;;;;;;14.14;nan;100957.91;5038977;28;20041;-78
2022/05/17 02:19:38;;;;;;;4.22;3.30;;;;;;;14.12;nan;100959.88;5034642;28;20033;-79
2022/05/17 02:22:04;;;;;;;5.47;3.53;;;;;;;14.12;nan;100966.03;5035900;28;20052;-79
2022/05/17 02:24:30;;;;;;;4.38;3.55;;;;;;;14.11;nan;100961.72;5038127;28;20064;-78
2022/05/17 02:26:56;;;;;;;4.25;2.95;;;;;;;14.12;nan;100966.03;5031910;28;20105;-80
2022/05/17 02:29:23;;;;;;;3.83;2.97;;;;;;;14.11;nan;100969.69;5032893;28;20545;-79
2022/05/17 02:31:49;;;;;;;3.88;2.95;;;;;;;14.10;nan;100962.69;5043812;28;20535;-78
2022/05/17 02:34:14;;;;;;;3.35;2.60;;;;;;;14.11;nan;100974.16;5040669;28;20033;-78
2022/05/17 02:36:39;;;;;;;3.42;2.80;;;;;;;14.11;nan;100971.50;5033265;28;20254;-79
2022/05/17 02:39:05;;;;;;;3.45;2.58;;;;;;;14.10;nan;100973.34;5035492;28;20502;-79
2022/05/17 02:41:30;;;;;;;4.57;3.30;;;;;;;14.09;nan;100971.69;5033938;28;20033;-79
2022/05/17 02:43:56;;;;;;;4.25;2.60;;;;;;;14.06;nan;100965.84;5031198;28;20043;-79
2022/05/17 02:46:21;;;;;;;4.15;3.00;;;;;;;14.04;nan;100968.69;5045891;28;20029;-79
2022/05/17 02:48:46;;;;;;;4.18;3.20;;;;;;;14.00;nan;100972.66;5044695;28;20037;-78
2022/05/17 02:51:17;;;;;;;5.35;3.78;;;;;;;13.98;nan;100966.66;5017465;28;20041;-79
2022/05/17 02:53:43;;;;;;;4.80;3.72;;;;;;;13.97;nan;100976.47;5010936;28;20475;-78
2022/05/17 02:56:09;;;;;;;4.22;3.38;;;;;;;13.98;nan;100972.00;5030581;28;20095;-79
2022/05/17 02:58:35;;;;;;;5.07;3.53;;;;;;;13.94;nan;100970.63;5028468;28;20049;-79
2022/05/17 03:01:01;;;;;;;4.40;3.17;;;;;;;13.91;nan;100973.63;5012612;28;20033;-79
2022/05/17 03:03:26;;;;;;;3.78;2.80;;;;;;;13.87;nan;100974.94;5035148;28;20029;-79
2022/05/17 03:05:51;;;;;;;4.22;3.30;;;;;;;13.85;nan;100967.16;5030989;28;20041;-79
2022/05/17 03:08:17;;;;;;;4.35;3.08;;;;;;;13.82;nan;100967.44;5028764;28;20037;-79
2022/05/17 03:10:42;;;;;;;4.22;2.72;;;;;;;13.79;nan;100967.78;5031394;28;20049;-80
2022/05/17 03:13:13;;;;;;;5.32;3.60;;;;;;;13.75;nan;100966.44;5036703;28;20029;-80
2022/05/17 03:15:39;;;;;;;5.97;4.10;;;;;;;13.70;nan;100971.41;5042259;28;20046;-80
2022/05/17 03:18:04;;;;;;;4.88;3.70;;;;;;;13.67;nan;100971.75;5025232;28;20042;-80
2022/05/17 03:20:30;;;;;;;5.72;3.55;;;;;;;13.64;nan;100978.22;5036878;28;20030;-80
2022/05/17 03:22:56;;;;;;;4.50;3.53;;;;;;;13.63;nan;100976.53;5021384;28;20046;-80
2022/05/17 03:25:23;;;;;;;4.20;3.60;;;;;;;13.60;nan;100982.19;5044057;28;20438;-79
2022/05/17 03:27:49;;;;;;;5.97;3.95;;;;;;;13.59;nan;100983.19;5041353;28;20056;-79
2022/05/17 03:30:14;;;;;;;6.13;3.60;;;;;;;13.57;nan;100985.16;5034726;28;20041;-78
2022/05/17 03:32:39;;;;;;;5.78;4.30;;;;;;;13.53;nan;100995.25;5034384;28;20088;-79
2022/05/17 03:35:06;;;;;;;3.85;3.30;;;;;;;13.52;nan;100993.59;5036575;28;20049;-79
2022/05/17 03:37:31;;;;;;;4.70;3.65;;;;;;;13.51;nan;100993.75;5036451;28;20036;-79
2022/05/17 03:39:56;;;;;;;4.43;3.50;;;;;;;13.50;nan;100995.59;5019530;28;20046;-79
2022/05/17 03:42:22;;;;;;;4.28;3.15;;;;;;;13.50;nan;100994.75;5036695;28;20057;-80
2022/05/17 03:44:47;;;;;;;3.80;2.95;;;;;;;13.50;nan;100994.75;5038977;28;20159;-79
2022/05/17 03:47:13;;;;;;;3.60;2.97;;;;;;;13.49;nan;100998.41;5036153;28;20034;-79
2022/05/17 03:49:39;;;;;;;4.25;3.40;;;;;;;13.50;nan;101000.91;5036066;28;20025;-79
2022/05/17 03:52:06;;;;;;;4.25;3.30;;;;;;;13.51;nan;101007.03;5041462;28;20569;-78
2022/05/17 03:54:32;;;;;;;4.50;3.58;;;;;;;13.52;nan;101008.72;5040774;28;20049;-79
2022/05/17 03:56:57;;;;;;;5.60;4.18;;;;;;;13.53;nan;101011.19;5037212;28;20029;-79
2022/05/17 03:59:23;;;;;;;5.00;4.30;;;;;;;13.55;nan;101013.72;5039201;28;20032;-79
2022/05/17 04:01:48;;;;;;;6.75;5.00;;;;;;;13.56;nan;101016.22;5034542;28;20049;-79
2022/05/17 04:04:13;;;;;;;6.55;5.00;;;;;;;13.60;nan;101012.22;5036839;28;20037;-79
2022/05/17 04:06:39;;;;;;;6.20;4.82;;;;;;;13.68;nan;101015.91;5034225;28;20038;-79
2022/05/17 04:09:05;;;;;;;5.57;4.00;;;;;;;13.71;nan;101013.78;5037138;28;20057;-80
2022/05/17 04:11:33;;;;;;;4.30;3.80;;;;;;;13.75;nan;101014.28;5020347;28;20116;-79
2022/05/17 04:13:59;;;;;;;5.68;3.78;;;;;;;13.77;nan;101020.28;5035234;28;20032;-79
2022/05/17 04:16:24;;;;;;;5.60;3.80;;;;;;;13.80;nan;101017.31;5024614;28;20029;-79
2022/05/17 04:18:49;;;;;;;4.47;2.80;;;;;;;13.83;nan;101019.66;5032803;28;20025;-79
2022/05/17 04:21:15;;;;;;;3.90;3.38;;;;;;;13.88;nan;101016.50;5039932;28;20033;-80
2022/05/17 04:23:41;;;;;;;3.55;3.17;;;;;;;13.92;nan;101016.03;5035583;28;20553;-80
2022/05/17 04:26:07;;;;;;;5.78;3.60;;;;;;;13.97;nan;101018.19;5037336;28;20495;-80
2022/05/17 04:28:32;;;;;;;3.88;3.10;;;;;;;14.01;nan;101017.72;5037990;28;20041;-79
2022/05/17 04:30:58;;;;;;;4.10;3.20;;;;;;;14.03;nan;101023.69;5033245;28;20117;-78
2022/05/17 04:33:24;;;;;;;3.95;3.20;;;;;;;14.07;nan;101024.19;5037158;28;20114;-79
2022/05/17 04:35:50;;;;;;;4.70;3.25;;;;;;;14.12;nan;101023.72;5039159;28;20407;-79
2022/05/17 04:38:16;;;;;;;4.00;3.53;;;;;;;14.17;nan;101026.72;5032824;28;20049;-80
2022/05/17 04:40:44;;;;;;;5.05;3.10;;;;;;;14.21;nan;101020.06;5035025;28;20068;-79
2022/05/17 04:43:10;;;;;;;4.22;3.50;;;;;;;14.27;nan;101029.22;5031946;28;20033;-79
2022/05/17 04:45:36;;;;;;;7.55;5.65;;;;;;;14.33;nan;101026.75;5030817;28;20029;-79
2022/05/17 04:48:02;;;;;;;6.40;4.97;;;;;;;14.38;nan;101028.91;5037736;28;20064;-80
2022/05/17 04:50:28;;;;;;;5.93;5.05;;;;;;;14.45;nan;101030.75;5033295;28;20626;-80
2022/05/17 04:52:53;;;;;;;7.22;4.68;;;;;;;14.55;nan;101032.47;5032140;28;20037;-79
2022/05/17 04:55:20;;;;;;;5.22;4.00;;;;;;;14.64;nan;101032.28;5031034;28;20113;-79
2022/05/17 04:57:46;;;;;;;6.93;5.25;;;;;;;14.70;nan;101029.97;5034463;28;20041;-79
2022/05/17 05:00:17;;;;;;;4.95;4.45;;;;;;;14.76;nan;101037.28;5033310;28;20037;-80
2022/05/17 05:02:43;;;;;;;6.18;4.90;;;;;;;14.84;nan;101031.94;5037100;28;20060;-79
2022/05/17 05:05:08;;;;;;;6.22;4.90;;;;;;;14.95;nan;101034.28;5037999;28;20039;-79
2022/05/17 05:07:34;;;;;;;4.95;4.20;;;;;;;15.07;nan;101035.59;5032963;28;20051;-79
2022/05/17 05:09:59;;;;;;;6.90;5.82;;;;;;;15.16;nan;101038.22;5036487;28;20047;-79
2022/05/17 05:12:24;;;;;;;7.10;6.10;;;;;;;15.25;nan;101038.06;5020324;28;20087;-79
2022/05/17 05:14:50;;;;;;;8.30;6.00;;;;;;;15.38;nan;101040.19;5032037;28;20327;-79
2022/05/17 05:17:15;;;;;;;7.33;5.27;;;;;;;15.50;nan;101033.50;5015079;28;20622;-80
2022/05/17 05:19:41;;;;;;;6.80;5.38;;;;;;;15.69;nan;101042.09;5036660;28;20112;-80
2022/05/17 05:22:06;;;;;;;8.07;4.80;;;;;;;15.88;nan;101040.88;5037287;28;20068;-82
2022/05/17 05:24:32;;;;;;;5.57;4.70;;;;;;;16.10;nan;101040.09;5036959;28;20445;-78
2022/05/17 05:26:58;;;;;;;7.75;4.53;;;;;;;16.39;nan;101043.09;5035097;28;20495;-78
2022/05/17 05:29:24;;;;;;;5.80;4.38;;;;;;;16.71;nan;101047.38;5022167;28;20087;-78
2022/05/17 05:31:49;;;;;;;5.40;3.47;;;;;;;17.07;nan;101050.25;5032348;28;20041;-79
2022/05/17 05:34:15;;;;;;;7.35;4.13;;;;;;;17.42;nan;101047.88;5014641;28;20372;-79
2022/05/17 05:36:40;;;;;;;4.10;3.60;;;;;;;17.79;nan;101054.16;5038810;28;20034;-79
2022/05/17 05:39:05;;;;;;;4.13;3.50;;;;;;;18.27;nan;101053.72;5036526;28;20061;-79
2022/05/17 05:41:31;;;;;;;4.35;2.97;;;;;;;18.72;nan;101054.38;5037383;28;20033;-79
2022/05/17 05:43:56;;;;;;;4.68;3.00;;;;;;;19.02;nan;101055.03;5035130;28;20037;-78
2022/05/17 05:46:21;;;;;;;3.97;3.08;;;;;;;19.27;nan;101058.94;5033458;28;20037;-79
2022/05/17 05:48:47;;;;;;;4.28;2.78;;;;;;;19.65;nan;101069.28;5033373;28;20407;-80
2022/05/17 05:51:12;;;;;;;3.97;2.70;;;;;;;20.04;nan;101073.19;5036727;28;20041;-80
2022/05/17 05:53:38;;;;;;;4.03;2.80;;;;;;;20.46;nan;101071.25;5030668;28;20057;-79
2022/05/17 05:56:05;;;;;;;5.05;3.05;;;;;;;20.83;nan;101074.44;5037030;28;20045;-79
2022/05/17 05:58:36;;;;;;;3.65;2.83;;;;;;;21.24;nan;101078.78;5041186;28;20029;-79
2022/05/17 06:01:02;;;;;;;6.60;4.07;;;;;;;21.34;nan;101078.34;5033121;28;20491;-80
2022/05/17 06:03:28;;;;;;;8.15;4.10;;;;;;;21.47;nan;101085.59;5032255;28;20043;-80
2022/05/17 06:05:54;;;;;;;4.97;3.67;;;;;;;21.65;nan;101079.56;5032733;28;20026;-80
2022/05/17 06:08:21;;;;;;;7.20;3.95;;;;;;;21.81;nan;101085.31;5032382;28;20033;-79
2022/05/17 06:10:47;;;;;;;4.60;3.42;;;;;;;22.12;nan;101093.66;5033515;28;20033;-80
2022/05/17 06:13:19;;;;;;;5.20;3.20;;;;;;;22.50;nan;101093.72;5014136;28;20397;-80
2022/05/17 06:15:46;;;;;;;4.47;3.10;;;;;;;22.84;nan;101088.91;5052438;28;20051;-80
2022/05/17 06:18:12;;;;;;;3.47;2.70;;;;;;;23.23;nan;101092.34;5048234;28;20402;-80
2022/05/17 06:20:39;;;;;;;5.45;3.55;;;;;;;23.63;nan;101089.25;5052083;28;20029;-80
2022/05/17 06:23:06;;;;;;;4.60;2.88;;;;;;;23.98;nan;101088.66;5042291;28;20045;-80
2022/05/17 06:25:32;;;;;;;3.03;2.40;;;;;;;24.35;nan;101092.94;5042352;28;20457;-80
2022/05/17 06:27:58;;;;;;;5.07;2.63;;;;;;;24.63;nan;101102.34;5032268;28;20116;-80
2022/05/17 06:30:23;;;;;;;4.47;2.58;;;;;;;24.83;nan;101091.22;5040604;28;20132;-80
2022/05/17 06:32:49;;;;;;;3.28;2.38;;;;;;;25.08;nan;101093.72;5037586;28;20045;-80
2022/05/17 06:35:15;;;;;;;4.10;2.60;;;;;;;25.20;nan;101097.28;5032112;28;20067;-80
2022/05/17 06:37:42;;;;;;;5.05;3.17;;;;;;;25.37;nan;101096.59;5039729;28;20800;-80
2022/05/17 06:40:08;;;;;;;4.68;3.17;;;;;;;25.41;nan;101095.06;5033905;28;20045;-80
2022/05/17 06:42:33;;;;;;;3.38;2.72;;;;;;;25.48;nan;101094.91;5049377;28;20041;-80
2022/05/17 06:44:59;;;;;;;4.80;3.20;;;;;;;25.49;nan;101097.38;5041237;28;20075;-80
2022/05/17 06:47:25;;;;;;;3.72;3.00;;;;;;;25.65;nan;101101.25;5023062;28;20037;-79
2022/05/17 06:49:51;;;;;;;5.13;2.80;;;;;;;25.87;nan;101098.78;5036748;28;20033;-80
2022/05/17 06:52:17;;;;;;;7.38;3.58;;;;;;;25.92;nan;101090.75;5036101;28;20625;-80
2022/05/17 06:54:43;;;;;;;4.70;2.72;;;;;;;25.89;nan;101093.94;5036228;28;20130;-80
2022/05/17 06:57:10;;;;;;;6.25;3.38;;;;;;;25.95;nan;101106.50;5053241;28;20334;-79
2022/05/17 06:59:39;;;;;;;5.57;2.95;;;;;;;25.93;nan;101089.66;5037891;28;20041;-80
2022/05/17 07:02:05;;;;;;;8.65;3.75;;;;;;;25.94;nan;101101.34;5042009;28;20034;-80
2022/05/17 07:04:32;;;;;;;5.85;3.88;;;;;;;25.74;nan;101105.25;5021674;28;20511;-80
2022/05/17 07:06:58;;;;;;;5.15;3.55;;;;;;;25.49;nan;101105.50;5046011;28;20046;-80
2022/05/17 07:09:24;;;;;;;4.25;3.30;;;;;;;25.39;nan;101102.59;5045933;28;20116;-80
2022/05/17 07:14:37;;;;;;;6.60;4.22;;;;;;;25.31;nan;101109.16;5040900;28;20123;-80
2022/05/17 07:17:22;;;;;;;4.35;3.10;;;;;;;25.42;nan;101105.63;5052226;28;20029;-80
2022/05/17 07:19:48;;;;;;;5.50;3.38;;;;;;;25.76;nan;101107.72;5042299;28;20039;-80
2022/05/17 07:22:14;;;;;;;5.35;2.97;;;;;;;26.08;nan;101105.44;5053423;28;20033;-80
2022/05/17 07:24:45;;;;;;;5.30;2.90;;;;;;;26.35;nan;101102.13;5045799;28;20055;-81
2022/05/17 07:27:11;;;;;;;5.05;3.63;;;;;;;26.38;nan;101104.34;5047480;28;20040;-80
2022/05/17 07:29:37;;;;;;;6.03;3.20;;;;;;;26.57;nan;101105.81;5037452;28;20048;-80
2022/05/17 07:32:03;;;;;;;4.90;3.10;;;;;;;26.73;nan;101104.19;5037434;28;20037;-80
2022/05/17 07:34:28;;;;;;;5.43;3.17;;;;;;;27.08;nan;101112.09;5037552;28;20036;-80
2022/05/17 07:36:54;;;;;;;6.75;3.33;;;;;;;27.47;nan;101119.50;5030888;28;20038;-80
2022/05/17 07:39:19;;;;;;;4.20;2.97;;;;;;;27.81;nan;101108.53;5042328;28;20426;-80
2022/05/17 07:41:45;;;;;;;5.57;3.00;;;;;;;28.14;nan;101108.41;5044498;28;20033;-80
2022/05/17 07:44:11;;;;;;;6.18;3.65;;;;;;;28.16;nan;101111.69;5017269;28;20120;-80
2022/05/17 07:46:37;;;;;;;5.05;3.45;;;;;;;28.30;nan;101112.13;5046625;28;20037;-80
2022/05/17 07:49:03;;;;;;;5.22;3.50;;;;;;;28.06;nan;101108.88;5054297;28;20056;-80
2022/05/17 07:51:28;;;;;;;4.10;2.80;;;;;;;28.26;nan;101110.19;5036281;28;20091;-80
2022/05/17 07:53:55;;;;;;;6.43;3.55;;;;;;;28.35;nan;101108.66;5034755;28;20338;-81
2022/05/17 07:56:21;;;;;;;4.28;2.90;;;;;;;28.52;nan;101114.00;5035274;28;20116;-80
2022/05/17 07:58:46;;;;;;;4.70;3.03;;;;;;;28.87;nan;101112.69;5043236;28;20045;-80
2022/05/17 08:01:12;;;;;;;5.47;3.15;;;;;;;29.13;nan;101119.19;5038803;28;20029;-80
2022/05/17 08:03:37;;;;;;;6.72;3.30;;;;;;;29.29;nan;101104.56;5036334;28;20100;-81
2022/05/17 08:06:03;;;;;;;4.50;2.90;;;;;;;29.34;nan;101115.53;5035013;28;20132;-80
2022/05/17 08:08:31;;;;;;;5.70;3.90;;;;;;;29.36;nan;101110.59;5036640;28;20507;-80
2022/05/17 08:10:56;;;;;;;4.65;3.28;;;;;;;29.50;nan;101107.41;5024396;28;20037;-80
2022/05/17 08:13:23;;;;;;;4.05;2.60;;;;;;;29.69;nan;101113.28;5027726;28;20097;-80
2022/05/17 08:15:49;;;;;;;4.10;3.00;;;;;;;29.88;nan;101116.34;5041036;28;20071;-80
2022/05/17 08:18:16;;;;;;;5.70;3.10;;;;;;;30.08;nan;101113.69;5046667;28;20039;-81
2022/05/17 08:20:42;;;;;;;3.13;2.78;;;;;;;30.35;nan;101104.53;5024640;28;20036;-80
2022/05/17 08:23:07;;;;;;;4.18;2.78;;;;;;;30.54;nan;101105.66;5030843;28;20033;-80
2022/05/17 08:28:17;;;;;;;6.30;3.35;;;;;;;30.87;nan;101109.78;5041844;28;20047;-81
2022/05/17 08:30:43;;;;;;;5.47;3.85;;;;;;;31.31;nan;101114.63;5047593;28;20038;-81
2022/05/17 08:33:17;;;;;;;5.85;2.90;;;;;;;31.37;nan;101109.16;5021472;28;20555;-81
2022/05/17 08:35:43;;;;;;;4.35;2.65;;;;;;;31.47;nan;101109.16;5030421;28;20037;-81
2022/05/17 08:38:11;;;;;;;4.65;2.92;;;;;;;31.29;nan;101107.81;5050302;28;20043;-80
2022/05/17 08:40:46;;;;;;;4.65;2.78;;;;;;;31.30;nan;101113.00;5040947;28;20032;-81
2022/05/17 08:43:11;;;;;;;;;;;;;;;31.82;nan;101110.97;5055684;28;20055;-81
2022/05/17 08:45:52;;;;;;;;;;;;;;;32.00;nan;101111.44;5054764;28;19932;-81
2022/05/17 08:48:18;;;;;;;4.13;2.65;;;;;;;32.28;nan;101104.44;5046282;28;19937;-81
2022/05/17 08:50:48;;;;;;;6.75;2.95;;;;;;;32.29;nan;101095.94;5042294;28;20040;-81
2022/05/17 08:53:18;;;;;;;4.13;2.40;;;;;;;32.30;nan;101097.59;5047030;28;21055;-81
2022/05/17 08:55:44;;;;;;;3.47;2.10;;;;;;;32.58;nan;101101.53;5038617;28;20406;-81
2022/05/17 08:58:31;;;;;;;2.70;1.95;;;;;;;33.13;nan;101103.25;5048404;28;20037;-82
2022/05/17 09:00:59;;;;;;;;;;;;;;;33.47;nan;101108.66;5050671;28;20096;-81
2022/05/17 09:04:03;;;;;;;5.18;2.60;;;;;;;33.44;nan;101101.00;5025846;28;20115;-81
2022/05/17 09:06:38;;;;;;;4.30;2.50;;;;;;;33.73;nan;101100.13;5047081;28;20025;-82
2022/05/17 09:09:14;;;;;;;4.30;2.13;;;;;;;33.46;nan;101104.25;5057229;28;20025;-81
2022/05/17 09:12:02;;;;;;;4.07;2.30;;;;;;;33.71;nan;101100.44;5039915;28;20051;-81
2022/05/17 09:14:32;;;;;;;4.03;1.90;;;;;;;34.26;nan;101092.56;5041909;28;20054;-81
2022/05/17 09:17:09;;;;;;;3.37;1.60;;;;;;;34.43;nan;101103.00;5033438;28;20437;-81
2022/05/17 09:19:34;;;;;;;2.15;1.33;;;;;;;35.00;nan;101102.09;5039408;28;20292;-81
2022/05/17 09:22:00;;;;;;;3.03;1.40;;;;;;;35.45;nan;101096.88;5045049;28;20029;-82
2022/05/17 09:24:32;;;;;;;3.03;1.40;;;;;;;35.75;nan;101095.44;5037137;28;20033;-82
2022/05/17 09:27:32;;;;;;;3.65;1.55;;;;;;;36.23;nan;101096.88;5046652;28;20041;-83
2022/05/17 09:30:08;;;;;;;3.13;1.50;;;;;;;35.91;nan;101087.69;5036962;28;20037;-83
2022/05/17 09:32:38;;;;;;;2.75;1.20;;;;;;;36.44;nan;101094.47;5060340;28;20060;-82
2022/05/17 09:35:12;;;;;;;1.92;0.90;;;;;;;36.74;nan;101088.22;5042024;28;20041;-83
2022/05/17 09:37:42;;;;;;;4.07;1.10;;;;;;;36.12;nan;101083.38;5048988;28;20033;-83
2022/05/17 09:40:12;;;;;;;1.35;0.75;;;;;;;36.21;nan;101091.72;5054275;28;20043;-83
2022/05/17 09:42:52;;;;;;;2.50;0.90;;;;;;;36.16;nan;101083.56;5040347;28;20058;-83
2022/05/17 09:45:20;;;;;;;2.50;1.10;;;;;;;36.52;nan;101083.53;5048167;28;20030;-83
2022/05/17 09:48:00;;;;;;;2.38;1.10;;;;;;;36.32;nan;101079.31;5040901;28;20061;-83
2022/05/17 09:53:21;;;;;;;3.50;1.65;;;;;;;36.97;nan;101074.38;5036957;28;20036;-83
2022/05/17 09:55:49;;;;;;;4.53;1.80;;;;;;;36.54;nan;101078.50;5038204;28;20529;-83
2022/05/17 09:58:32;;;;;;;3.22;1.70;;;;;;;36.69;nan;101071.00;5046660;28;20029;-85
2022/05/17 10:00:58;;;;;;;3.65;1.70;;;;;;;37.16;nan;101065.91;5032833;28;20029;-83
2022/05/17 10:03:37;;;;;;;3.40;1.90;;;;;;;36.67;nan;101071.31;5046859;28;20048;-81
2022/05/17 10:06:12;;;;;;;4.75;1.92;;;;;;;35.85;nan;101061.38;5049183;28;20045;-82
2022/05/17 10:08:47;;;;;;;3.55;2.20;;;;;;;35.84;nan;101065.28;5034299;28;20030;-83
2022/05/17 10:11:22;;;;;;;4.03;1.63;;;;;;;36.21;nan;101063.34;5046390;28;20033;-82
2022/05/17 10:13:55;;;;;;;5.53;2.83;;;;;;;36.25;nan;101062.41;5025415;28;20486;-83
2022/05/17 10:16:37;;;;;;;5.03;2.40;;;;;;;36.24;nan;101057.22;5039531;28;20049;-83
2022/05/17 10:19:33;;;;;;;2.92;1.80;;;;;;;35.99;nan;101051.16;5042927;28;20044;-82
2022/05/17 10:22:12;;;;;;;4.63;2.53;;;;;;;36.17;nan;101049.41;5030845;28;20046;-83
2022/05/17 10:24:48;;;;;;;5.60;2.42;;;;;;;36.46;nan;101051.69;5056634;28;20163;-83
2022/05/17 10:27:32;;;;;;;2.60;1.70;;;;;;;37.16;nan;101043.84;5051819;28;20037;-83
2022/05/17 10:30:19;;;;;;;3.45;1.63;;;;;;;37.73;nan;101037.50;5044490;28;20025;-83
2022/05/17 10:32:59;;;;;;;2.20;1.20;;;;;;;37.58;nan;101047.88;5041860;28;20040;-83
2022/05/17 10:36:02;;;;;;;2.33;1.25;;;;;;;37.95;nan;101053.94;5021986;28;20116;-82
2022/05/17 10:38:36;;;;;;;3.17;1.00;;;;;;;37.77;nan;101047.56;5007768;28;20064;-82
2022/05/17 10:41:07;;;;;;;2.08;1.08;;;;;;;37.71;nan;101039.78;5019509;28;20060;-83
2022/05/17 10:43:41;;;;;;;3.58;1.52;;;;;;;37.48;nan;101034.38;5045739;28;20041;-82
2022/05/17 10:46:19;;;;;;;2.08;1.13;;;;;;;37.58;nan;101036.03;5052435;28;20045;-83
2022/05/17 10:49:16;;;;;;;2.92;1.10;;;;;;;37.58;nan;101025.00;5044214;28;20117;-82
2022/05/17 10:51:56;;;;;;;2.22;1.10;;;;;;;37.82;nan;101030.84;5040865;28;20029;-83
2022/05/17 10:54:43;;;;;;;3.40;0.95;;;;;;;38.37;nan;101023.84;5049370;28;20120;-82
2022/05/17 10:57:37;;;;;;;3.08;1.30;;;;;;;38.52;nan;101014.28;5047528;28;20101;-83
2022/05/17 11:00:18;;;;;;;2.33;1.17;;;;;;;39.16;nan;101012.56;5025181;28;20042;-83
2022/05/17 11:02:55;;;;;;;2.65;1.25;;;;;;;39.79;nan;101010.69;5023327;28;20529;-82
2022/05/17 11:05:39;;;;;;;2.17;1.20;;;;;;;40.20;nan;101011.81;5045111;28;20037;-82
2022/05/17 11:08:25;;;;;;;3.88;1.30;;;;;;;40.27;nan;101014.06;5031446;28;20029;-82
2022/05/17 11:11:11;;;;;;;2.75;1.17;;;;;;;40.21;nan;101012.63;5044508;28;20403;-82
2022/05/17 11:13:58;;;;;;;1.92;1.00;;;;;;;41.28;nan;101007.94;5039969;28;20033;-82
2022/05/17 11:16:51;;;;;;;1.27;0.88;;;;;;;41.43;nan;101009.22;5048031;28;20041;-82
2022/05/17 11:19:37;;;;;;;1.92;0.98;;;;;;;41.51;nan;101005.47;5039414;28;20041;-82
2022/05/17 11:22:31;;;;;;;4.70;1.50;;;;;;;40.58;nan;100998.91;5047424;28;20033;-82
2022/05/17 11:25:33;;;;;;;1.75;1.00;;;;;;;40.63;nan;101002.25;5036524;28;20402;-82
2022/05/17 11:28:25;;;;;;;2.13;1.20;;;;;;;40.62;nan;100997.88;5034306;28;20406;-82
2022/05/17 11:31:06;;;;;;;2.30;1.08;;;;;;;41.32;nan;100997.78;5032069;28;20097;-82
2022/05/17 11:33:39;;;;;;;2.63;1.10;;;;;;;41.51;nan;100999.94;5041516;28;20477;-82
2022/05/17 11:36:11;;;;;;;1.95;0.90;;;;;;;42.48;nan;100997.16;5029791;28;20037;-82
2022/05/17 11:38:36;;;;;;;1.60;1.00;;;;;;;42.35;nan;100995.56;5027500;28;20030;-82
2022/05/17 11:41:42;;;;;;;1.73;1.00;;;;;;;42.40;nan;100995.31;5012294;28;20037;-82
2022/05/17 11:44:10;;;;;;;2.08;0.90;;;;;;;42.48;nan;100990.75;5039265;28;20037;-82
2022/05/17 11:46:43;;;;;;;1.60;0.95;;;;;;;42.34;nan;100982.84;5042963;28;20030;-82
2022/05/17 11:49:12;;;;;;;2.05;1.02;;;;;;;42.89;nan;100983.06;5036130;28;20064;-82
2022/05/17 11:51:58;;;;;;;3.28;1.08;;;;;;;42.53;nan;100982.97;5034329;28;20037;-82
2022/05/17 11:54:56;;;;;;;2.35;1.30;;;;;;;41.27;nan;100980.56;5034887;28;20033;-82
2022/05/17 11:57:24;;;;;;;3.28;1.02;;;;;;;41.58;nan;100971.59;5010723;28;20324;-82
2022/05/17 12:00:01;;;;;;;1.55;0.80;;;;;;;42.26;nan;100978.25;5044235;28;20379;-82
2022/05/17 12:02:48;;;;;;;1.52;0.90;;;;;;;43.40;nan;100974.69;5045850;28;20419;-82
2022/05/17 12:05:41;;;;;;;4.25;1.10;;;;;;;43.24;nan;100966.38;5042602;28;20618;-83